createdAt,value
2022-09-30T00:00:29.481Z,10.82
2022-09-30T00:05:31.157Z,11.00
2022-09-30T00:10:32.763Z,10.82
2022-09-30T00:15:34.536Z,10.75
2022-09-30T00:20:37.233Z,10.52
2022-09-30T00:25:39.033Z,10.80
2022-09-30T00:30:41.089Z,10.32
2022-09-30T00:35:42.781Z,10.63
2022-09-30T00:40:44.653Z,10.57
2022-09-30T00:45:59.545Z,10.15
2022-09-30T00:51:02.750Z,10.45
2022-09-30T00:56:23.293Z,10.10
2022-09-30T01:01:25.214Z,10.25
2022-09-30T01:06:27.118Z,10.15
2022-09-30T01:11:29.180Z,10.38
2022-09-30T01:16:34.265Z,10.13
2022-09-30T01:21:54.665Z,10.35
2022-09-30T01:27:05.322Z,10.63
2022-09-30T01:32:22.010Z,11.13
2022-09-30T01:37:43.517Z,11.25
2022-09-30T01:42:53.549Z,10.65
2022-09-30T01:48:21.650Z,10.77
2022-09-30T01:53:38.332Z,11.38
2022-09-30T01:58:59.050Z,11.13
2022-09-30T02:04:07.228Z,10.48
2022-09-30T02:09:16.406Z,10.45
2022-09-30T02:14:21.956Z,11.25
2022-09-30T02:19:45.316Z,10.90
2022-09-30T02:24:50.673Z,11.80
2022-09-30T02:29:57.061Z,12.43
2022-09-30T02:35:05.814Z,11.65
2022-09-30T02:40:39.843Z,12.30
2022-09-30T02:46:18.758Z,10.98
2022-09-30T02:51:49.996Z,12.90
2022-09-30T02:57:19.323Z,12.63
2022-09-30T03:02:21.781Z,13.35
2022-09-30T03:07:24.054Z,13.32
2022-09-30T03:12:39.617Z,12.90
2022-09-30T03:18:08.226Z,12.15
2022-09-30T03:23:19.403Z,12.63
2022-09-30T03:28:34.788Z,12.50
2022-09-30T03:34:03.742Z,11.85
2022-09-30T03:39:18.985Z,12.82
2022-09-30T03:44:29.717Z,11.55
2022-09-30T03:49:55.913Z,11.77
2022-09-30T03:55:03.696Z,11.82
2022-09-30T04:00:07.005Z,12.65
2022-09-30T04:05:08.784Z,11.98
2022-09-30T04:10:11.841Z,12.68
2022-09-30T04:15:13.601Z,12.00
2022-09-30T04:20:15.450Z,11.80
2022-09-30T04:25:17.115Z,11.82
2022-09-30T04:30:23.871Z,13.05
2022-09-30T04:35:29.613Z,13.07
2022-09-30T04:40:31.254Z,12.38
2022-09-30T04:45:32.972Z,12.57
2022-09-30T04:50:34.724Z,12.93
2022-09-30T04:55:36.354Z,12.40
2022-09-30T05:00:38.530Z,11.77
2022-09-30T05:05:44.849Z,12.40
2022-09-30T05:10:55.083Z,11.93
2022-09-30T05:15:56.940Z,12.25
2022-09-30T05:20:58.737Z,16.45
2022-09-30T05:26:01.719Z,16.05
2022-09-30T05:31:05.955Z,12.80
2022-09-30T05:36:09.517Z,13.15
2022-09-30T05:41:13.533Z,13.65
2022-09-30T05:46:19.818Z,13.48
2022-09-30T05:51:22.083Z,12.73
2022-09-30T05:56:23.746Z,14.65
2022-09-30T06:01:25.469Z,13.05
2022-09-30T06:06:27.179Z,12.25
2022-09-30T06:11:28.878Z,12.95
2022-09-30T06:16:31.964Z,11.18
2022-09-30T06:21:33.785Z,11.35
2022-09-30T06:26:35.402Z,10.77
2022-09-30T06:31:37.372Z,10.45
2022-09-30T06:36:39.028Z,11.10
2022-09-30T06:41:43.940Z,10.90
2022-09-30T06:46:53.603Z,10.68
2022-09-30T06:51:56.023Z,10.20
2022-09-30T06:56:57.701Z,10.95
2022-09-30T07:01:59.441Z,11.43
2022-09-30T07:07:01.140Z,10.32
2022-09-30T07:12:02.765Z,10.73
2022-09-30T07:17:06.217Z,10.77
2022-09-30T07:22:26.679Z,10.85
2022-09-30T07:27:29.337Z,11.00
2022-09-30T07:32:31.078Z,11.68
2022-09-30T07:37:35.855Z,11.60
2022-09-30T07:42:45.357Z,12.10
2022-09-30T07:47:52.553Z,11.18
2022-09-30T07:52:56.272Z,11.02
2022-09-30T07:57:57.946Z,10.43
2022-09-30T08:02:59.579Z,11.00
2022-09-30T08:08:01.701Z,10.57
2022-09-30T08:13:05.690Z,10.75
2022-09-30T08:18:08.171Z,10.23
2022-09-30T08:23:09.963Z,11.05
2022-09-30T08:28:12.325Z,9.65
2022-09-30T08:33:14.132Z,9.93
2022-09-30T08:38:15.760Z,9.30
2022-09-30T08:43:35.664Z,9.07
2022-09-30T08:48:37.256Z,8.23
2022-09-30T08:53:43.784Z,7.75
2022-09-30T08:58:47.031Z,7.50
2022-09-30T09:03:48.788Z,7.25
2022-09-30T09:08:56.661Z,7.28
2022-09-30T09:14:24.782Z,6.70
2022-09-30T09:19:36.892Z,6.97
2022-09-30T09:24:47.246Z,6.32
2022-09-30T09:30:22.464Z,6.80
2022-09-30T09:36:06.842Z,5.97
2022-09-30T09:41:20.403Z,5.72
2022-09-30T09:46:48.147Z,6.15
2022-09-30T09:52:05.735Z,6.28
2022-09-30T09:57:12.024Z,5.65
2022-09-30T10:02:31.656Z,6.10
2022-09-30T10:07:34.397Z,5.82
2022-09-30T10:12:36.265Z,5.90
2022-09-30T10:17:38.361Z,5.70
2022-09-30T10:22:40.587Z,5.30
2022-09-30T10:27:53.412Z,4.65
2022-09-30T10:32:55.210Z,4.90
2022-09-30T10:37:59.349Z,4.45
2022-09-30T10:43:00.993Z,4.07
2022-09-30T10:48:07.398Z,4.10
2022-09-30T10:53:19.033Z,5.68
2022-09-30T10:58:26.471Z,3.30
2022-09-30T11:03:34.803Z,4.00
2022-09-30T11:08:44.819Z,3.00
2022-09-30T11:13:57.351Z,3.50
2022-09-30T11:19:16.201Z,3.90
2022-09-30T11:24:42.042Z,4.65
2022-09-30T11:30:07.779Z,4.28
2022-09-30T11:35:28.303Z,4.97
2022-09-30T11:40:36.980Z,5.95
2022-09-30T11:45:46.316Z,4.93
2022-09-30T11:51:20.366Z,4.18
2022-09-30T11:56:35.392Z,5.00
2022-09-30T12:01:45.987Z,4.05
2022-09-30T12:06:59.187Z,4.70
2022-09-30T12:12:15.289Z,4.68
2022-09-30T12:17:26.752Z,4.45
2022-09-30T12:22:40.151Z,5.28
2022-09-30T12:27:47.702Z,5.53
2022-09-30T12:33:00.054Z,4.43
2022-09-30T12:38:37.064Z,3.97
2022-09-30T12:44:03.544Z,3.20
2022-09-30T12:49:12.610Z,4.10
2022-09-30T12:54:19.569Z,3.80
2022-09-30T12:59:30.479Z,3.63
2022-09-30T13:04:34.424Z,3.42
2022-09-30T13:09:37.963Z,3.35
2022-09-30T13:14:43.900Z,3.65
2022-09-30T13:19:51.848Z,4.00
2022-09-30T13:25:05.469Z,4.63
2022-09-30T13:30:16.252Z,3.63
2022-09-30T13:35:34.370Z,4.50
2022-09-30T13:41:00.684Z,3.67
2022-09-30T13:46:22.338Z,3.80
2022-09-30T13:51:27.763Z,3.85
2022-09-30T13:56:37.323Z,4.03
2022-09-30T14:01:48.055Z,3.67
2022-09-30T14:07:12.495Z,4.57
2022-09-30T14:12:29.274Z,4.25
2022-09-30T14:17:46.267Z,3.78
2022-09-30T14:22:48.698Z,4.20
2022-09-30T14:28:16.153Z,3.92
2022-09-30T14:33:25.422Z,4.07
2022-09-30T14:38:29.922Z,4.22
2022-09-30T14:43:38.849Z,3.97
2022-09-30T14:48:45.527Z,3.25
2022-09-30T14:53:57.551Z,3.00
2022-09-30T14:59:00.874Z,3.00
2022-09-30T15:04:18.467Z,2.65
2022-09-30T15:09:20.116Z,2.55
2022-09-30T15:14:23.738Z,2.40
2022-09-30T15:19:28.278Z,2.22
2022-09-30T15:24:32.591Z,2.20
2022-09-30T15:29:34.387Z,2.08
2022-09-30T15:34:36.115Z,1.90
2022-09-30T15:40:04.182Z,2.45
2022-09-30T15:45:34.582Z,2.15
2022-09-30T15:50:49.025Z,2.00
2022-09-30T15:55:52.455Z,2.10
2022-09-30T16:01:09.260Z,1.90
2022-09-30T16:06:14.086Z,2.42
2022-09-30T16:11:27.735Z,3.17
2022-09-30T16:16:33.351Z,3.58
2022-09-30T16:21:45.393Z,3.40
2022-09-30T16:26:47.429Z,3.95
2022-09-30T16:31:51.440Z,2.92
2022-09-30T16:36:55.734Z,2.90
2022-09-30T16:41:57.367Z,2.88
2022-09-30T16:46:59.292Z,4.53
2022-09-30T16:52:01.060Z,4.32
2022-09-30T16:57:02.678Z,6.03
2022-09-30T17:02:05.428Z,5.75
2022-09-30T17:07:11.303Z,6.93
2022-09-30T17:12:13.123Z,8.45
2022-09-30T17:17:14.743Z,9.48
2022-09-30T17:22:16.324Z,12.90
2022-09-30T17:27:17.931Z,17.23
2022-09-30T17:32:19.540Z,14.05
2022-09-30T17:37:22.069Z,14.13
2022-09-30T17:42:42.270Z,11.07
2022-09-30T17:47:43.970Z,11.30
2022-09-30T17:52:45.647Z,9.75
2022-09-30T17:57:47.291Z,8.63
2022-09-30T18:02:49.045Z,9.27
2022-09-30T18:07:50.769Z,8.90
2022-09-30T18:12:54.702Z,10.20
2022-09-30T18:17:56.679Z,13.88
2022-09-30T18:22:58.334Z,11.75
2022-09-30T18:28:00.232Z,11.00
2022-09-30T18:33:03.033Z,9.52
2022-09-30T18:38:06.517Z,10.60
2022-09-30T18:43:13.404Z,10.35
2022-09-30T18:48:15.552Z,10.77
2022-09-30T18:53:22.306Z,12.30
2022-09-30T18:58:23.990Z,17.83
2022-09-30T19:03:29.383Z,27.23
2022-09-30T19:08:31.124Z,40.42
2022-09-30T19:13:32.736Z,16.17
2022-09-30T19:18:34.485Z,33.40
2022-09-30T19:23:36.766Z,44.47
2022-09-30T19:28:38.680Z,20.60
2022-09-30T19:33:48.487Z,24.65
2022-09-30T19:39:10.416Z,24.95
2022-09-30T19:44:18.694Z,22.33
2022-09-30T19:49:21.937Z,25.02
2022-09-30T19:54:36.271Z,24.92
2022-09-30T19:59:39.752Z,24.98
2022-09-30T20:04:42.158Z,26.30
2022-09-30T20:09:43.875Z,27.27
2022-09-30T20:15:04.068Z,38.85
2022-09-30T20:20:25.066Z,32.70
2022-09-30T20:25:26.761Z,33.42
2022-09-30T20:30:29.852Z,27.42
2022-09-30T20:35:35.322Z,22.13
2022-09-30T20:40:37.008Z,21.92
2022-09-30T20:45:41.184Z,21.70
2022-09-30T20:50:45.143Z,20.25
2022-09-30T20:55:46.768Z,20.50
2022-09-30T21:00:48.462Z,20.60
2022-09-30T21:05:53.467Z,19.08
2022-09-30T21:10:56.252Z,20.85
2022-09-30T21:16:02.454Z,19.77
2022-09-30T21:21:05.036Z,19.20
2022-09-30T21:26:10.291Z,19.50
2022-09-30T21:31:21.439Z,19.48
2022-09-30T21:36:24.168Z,18.80
2022-09-30T21:41:25.794Z,18.70
2022-09-30T21:46:27.447Z,18.73
2022-09-30T21:51:34.339Z,17.58
2022-09-30T21:56:36.996Z,16.42
2022-09-30T22:01:39.247Z,14.52
2022-09-30T22:06:40.933Z,14.68
2022-09-30T22:11:43.850Z,14.50
2022-09-30T22:16:45.793Z,14.70
2022-09-30T22:21:47.812Z,14.13
2022-09-30T22:26:49.414Z,14.23
2022-09-30T22:31:51.076Z,14.52
2022-09-30T22:37:11.853Z,14.85
2022-09-30T22:42:13.462Z,14.25
2022-09-30T22:47:15.110Z,14.65
2022-09-30T22:52:16.809Z,14.10
2022-09-30T22:57:18.474Z,14.02
2022-09-30T23:02:22.056Z,12.40
2022-09-30T23:07:23.771Z,13.50
2022-09-30T23:12:25.435Z,14.68
2022-09-30T23:17:27.140Z,14.40
2022-09-30T23:22:28.744Z,14.50
2022-09-30T23:27:30.349Z,13.13
2022-09-30T23:32:31.955Z,13.55
2022-09-30T23:37:33.594Z,13.80
2022-09-30T23:42:35.249Z,11.93
2022-09-30T23:47:37.345Z,10.68
2022-09-30T23:52:38.986Z,10.68
2022-09-30T23:57:41.091Z,9.57
